Details From KSLE - McNary Fld
To KOLM - OLYMPIA
Flight Number -
Tags decode
Created
Modified
Stats Distance 125 nm / 232 km
Max Altitude 0 ft / 0 m
Waypoints 4
Social Downloads 2
Likes 0
Share VATSIM

Download

Looking for another format? Having issues loading an existing format? Contact us
Advertisement - Login to hide

Notes

Requested: KSLE UBG ATASY CERTA KOLM Unmatched points: CERTA

Route

KSLE UBG ATASY KOLM

ID Type Via Altitude Latitude Longitude Leg Dist Tot Dist Heading (true) Name
O KSLE APT - 0 ft / 0 m 44.90951˚ -123.00255˚ - 0 nm - McNary Fld
UBG VOR - 0 ft / 0 m 45.35322˚ -122.97817˚ 26 nm 26 nm 2° / 2° NEWBERG VOR-DME
ATASY FIX - 0 ft / 0 m 46.42465˚ -123.11371˚ 64 nm 91 nm 355° / 355° -
O KOLM APT - 0 ft / 0 m 46.96931˚ -122.90248˚ 33 nm 125 nm 15° / 15° OLYMPIA

Altitude Profile

Advertisement - Login to hide

KSLE

Details ICAO KSLE (SLE)
Name McNary Fld
Region United States
Timezone America/Los_Angeles (UTC-8.0)
Stats Elevation 214 ft / 65 m (AMSL)
Location 44.909509° -123.002551°
Runways 2
Magnetic Variation 15.202° E

METAR

KSLE 160456Z AUTO 18003KT 4SM BR BKN080 OVC095 02/01 A3034 RMK AO2 SLP276 T00220011

Decode

TAF

TAF KSLE 152325Z 1600/1624 16008KT P6SM VCSH SCT035 OVC050 FM160300 VRB03KT P6SM OVC050 FM161900 18005KT P6SM SCT025 BKN040

Decode

Departure Runways

ID Width Length Bearing (true) Bearing (mag) Surface Threshold Offset Overrun Length
13 150 ft / 46 m 5,811 ft / 1,771 m 150.17° 134.97° Asphalt 0 ft / 0 m 0 ft / 0 m
16 100 ft / 30 m 5,149 ft / 1,569 m 180.77° 165.57° Asphalt 0 ft / 0 m 0 ft / 0 m
31 150 ft / 46 m 5,811 ft / 1,771 m 330.17° 314.97° Asphalt 0 ft / 0 m 0 ft / 0 m
34 100 ft / 30 m 5,149 ft / 1,569 m 0.76° 345.56° Asphalt 0 ft / 0 m 0 ft / 0 m

KOLM

Details ICAO KOLM (OLM)
Name OLYMPIA
Region United States
Timezone America/Los_Angeles (UTC-8.0)
Stats Elevation 209 ft / 64 m (AMSL)
Location 46.969312° -122.902479°
Runways 2
Magnetic Variation 15.674° E

METAR

KOLM 160454Z AUTO 22005KT 10SM CLR 04/03 A3025 RMK AO2 SLP243 T00440033

Decode

TAF

KOLM 160131Z 1602/1624 20006KT P6SM VCSH FEW030 BKN100 FM160600 VRB04KT P6SM SCT008 BKN020 FM160900 VRB03KT 5SM BR OVC012 FM161800 18005KT P6SM BKN025 FM161900 17007KT P6SM BKN030 BKN050

Decode

Destination Runways

ID Width Length Bearing (true) Bearing (mag) Surface Threshold Offset Overrun Length
08 151 ft / 46 m 4,147 ft / 1,264 m 103.71° 88.04° Asphalt 0 ft / 0 m 0 ft / 0 m
17 151 ft / 46 m 5,503 ft / 1,677 m 191.27° 175.60° Asphalt 0 ft / 0 m 600 ft / 183 m
26 151 ft / 46 m 4,147 ft / 1,264 m 283.72° 268.05° Asphalt 0 ft / 0 m 0 ft / 0 m
35 151 ft / 46 m 5,503 ft / 1,677 m 11.27° 355.60° Asphalt 0 ft / 0 m 0 ft / 0 m

Approach Navaids

Runway Type Ident Frequency Range Bearing (true) Bearing (mag) Slope Elevation
17 Localiser IOLM 111.90 MHz 18 nm / 33 km 191.30° 175.63° - 200 ft / 61 m (AMSL)
17 Glidescope IOLM 111.90 MHz 10 nm / 19 km 191.30° 175.63° 3.00° 192 ft / 59 m (AMSL)